KECG/ECG METAR and TAF weather

Enter ICAO airport designator
Station Type Date Time Source
KECG METAR 2020/11/28 18:54 UTC NOAA

KECG 281854Z 35012KT 10SM CLR 16/13 A3003 RMK AO2 SLP169 T01610128


Station Type Date Time Source
KECG Decoded METAR 2020/11/28 18:54 UTC NOAA

ELIZABETH CITY C/G REGN AIRPORT , NC, United States (KECG) 36-15N 076-10W 11M
Nov 28, 2020 - 01:54 PM EST / 2020.11.28 1854 UTC
Wind: from the N (350 degrees) at 14 MPH (12 KT):0
Visibility: 10 mile(s):0
Sky conditions: clear
Temperature: 61.0 F (16.1 C)
Dew Point: 55.0 F (12.8 C)
Relative Humidity: 80%
Pressure (altimeter): 30.03 in. Hg (1016 hPa)
ob: KECG 281854Z 35012KT 10SM CLR 16/13 A3003 RMK AO2 SLP169 T01610128
cycle: 19

Station Type Date Time Source
KECG TAF 2020/11/28 18:27 UTC NOAA

TAF KECG 281722Z 2818/2918 26004KT P6SM SKC
FM282200 VRB05KT P6SM SKC
FM290500 33004KT P6SM SCT007
FM291000 VRB03KT 4SM BR SCT004 BKN007
FM291400 08005KT P6SM SKC

Example: see airport list